Time;durP1;ratioP1;P1;durP2;ratioP2;P2;SDS_P1;SDS_P2;PMS_P1;PMS_P2;Temp;Humidity;BMP_temperature;BMP_pressure;BME280_temperature;BME280_humidity;BME280_pressure;Samples;Min_cycle;Max_cycle;Signal;HPM_P1;HPM_P2
2023/07/14 00:01:24;;;;;;;;;;;16.50;81.00;;;;;;5022357;28;20439;-86
2023/07/14 00:03:50;;;;;;;;;;;16.50;81.50;;;;;;5023890;28;20012;-86
2023/07/14 00:06:16;;;;;;;;;;;16.40;81.60;;;;;;5020503;28;19935;-86
2023/07/14 00:08:41;;;;;;;;;;;16.40;81.70;;;;;;5024363;28;19917;-86
2023/07/14 00:11:14;;;;;;;;;;;16.50;81.60;;;;;;5005568;28;19928;-84
2023/07/14 00:13:40;;;;;;;;;;;16.50;81.40;;;;;;5006718;28;19913;-85
2023/07/14 00:16:11;;;;;;;;;;;16.50;81.20;;;;;;5023529;28;19924;-84
2023/07/14 00:18:36;;;;;;;;;;;16.50;81.40;;;;;;5023781;28;19988;-84
2023/07/14 00:21:02;;;;;;;;;;;16.40;81.60;;;;;;5024576;28;20546;-83
2023/07/14 00:23:28;;;;;;;;;;;16.40;81.50;;;;;;5006926;28;19917;-85
2023/07/14 00:25:53;;;;;;;;;;;16.50;81.50;;;;;;5023915;28;19925;-84
2023/07/14 00:28:20;;;;;;;;;;;16.40;81.60;;;;;;5022630;28;19919;-83
2023/07/14 00:30:47;;;;;;;;;;;16.40;81.60;;;;;;5022587;28;19925;-84
2023/07/14 00:33:13;;;;;;;;;;;16.20;82.50;;;;;;5025018;28;19928;-83
2023/07/14 00:35:40;;;;;;;;;;;16.00;83.30;;;;;;5024051;28;19924;-83
2023/07/14 00:38:05;;;;;;;;;;;15.90;84.60;;;;;;5024225;28;19924;-84
2023/07/14 00:40:31;;;;;;;;;;;15.80;85.70;;;;;;5006266;28;19913;-84
2023/07/14 00:42:57;;;;;;;;;;;15.70;86.00;;;;;;5024359;28;19913;-82
2023/07/14 00:45:24;;;;;;;;;;;15.60;86.40;;;;;;5023317;28;19925;-82
2023/07/14 00:47:52;;;;;;;;;;;15.60;87.20;;;;;;5024977;28;20011;-82
2023/07/14 00:50:24;;;;;;;;;;;15.50;87.90;;;;;;5024407;28;19932;-84
2023/07/14 00:52:50;;;;;;;;;;;15.40;88.30;;;;;;5023156;28;20407;-83
2023/07/14 00:55:46;;;;;;;;;;;15.40;88.70;;;;;;5021855;28;19913;-83
2023/07/14 00:58:13;;;;;;;;;;;15.40;88.90;;;;;;4985635;28;19913;-84
2023/07/14 01:00:39;;;;;;;;;;;15.40;89.00;;;;;;5005299;28;19920;-85
2023/07/14 01:03:13;;;;;;;;;;;15.40;88.80;;;;;;5023646;28;19964;-85
2023/07/14 01:05:38;;;;;;;;;;;15.30;89.50;;;;;;5004379;28;19925;-86
2023/07/14 01:08:04;;;;;;;;;;;15.30;89.80;;;;;;5004408;28;20538;-87
2023/07/14 01:10:30;;;;;;;;;;;15.30;89.50;;;;;;5022486;28;19917;-87
2023/07/14 01:12:58;;;;;;;;;;;15.30;89.50;;;;;;5022210;28;19917;-85
2023/07/14 01:15:23;;;;;;;;;;;15.20;90.10;;;;;;5022136;28;19916;-85
2023/07/14 01:17:50;;;;;;;;;;;15.20;90.30;;;;;;5021573;28;21520;-86
2023/07/14 01:20:16;;;;;;;;;;;15.10;90.40;;;;;;5003489;28;19920;-84
2023/07/14 01:23:01;;;;;;;;;;;15.10;90.40;;;;;;5004117;28;19917;-86
2023/07/14 01:25:35;;;;;;;;;;;15.00;90.40;;;;;;5020967;28;19968;-86
2023/07/14 01:28:03;;;;;;;;;;;15.10;90.50;;;;;;5019730;28;20658;-87
2023/07/14 01:30:29;;;;;;;;;;;15.10;90.50;;;;;;5021827;28;20388;-87
2023/07/14 01:32:55;;;;;;;;;;;15.10;90.50;;;;;;5004107;28;19921;-87
2023/07/14 01:35:24;;;;;;;;;;;15.10;90.60;;;;;;5022209;28;19921;-88
2023/07/14 01:37:50;;;;;;;;;;;15.00;90.90;;;;;;5017986;28;19917;-86
2023/07/14 01:40:17;;;;;;;;;;;14.90;91.20;;;;;;5004015;28;19968;-84
2023/07/14 01:42:54;;;;;;;;;;;14.80;91.40;;;;;;5021505;28;19925;-84
2023/07/14 01:45:20;;;;;;;;;;;14.70;91.50;;;;;;5004177;28;19932;-83
2023/07/14 01:47:49;;;;;;;;;;;14.70;92.00;;;;;;5004293;28;19928;-83
2023/07/14 01:50:32;;;;;;;;;;;14.70;91.80;;;;;;5021788;28;20028;-84
2023/07/14 01:53:00;;;;;;;;;;;14.60;92.10;;;;;;5001957;28;20146;-83
2023/07/14 01:55:31;;;;;;;;;;;14.60;92.00;;;;;;5004163;28;20336;-82
2023/07/14 01:57:57;;;;;;;;;;;14.70;91.90;;;;;;5021891;28;19924;-82
2023/07/14 02:00:23;;;;;;;;;;;14.70;91.80;;;;;;5003439;28;20332;-82
2023/07/14 02:02:50;;;;;;;;;;;14.70;91.70;;;;;;5021187;28;19924;-82
2023/07/14 02:05:45;;;;;;;;;;;14.70;91.70;;;;;;5015701;28;19929;-82
2023/07/14 02:08:13;;;;;;;;;;;14.60;91.70;;;;;;4991932;28;19971;-81
2023/07/14 02:10:39;;;;;;;;;;;14.60;91.90;;;;;;5022252;28;19917;-83
2023/07/14 02:13:05;;;;;;;;;;;14.50;92.10;;;;;;5021872;28;19936;-81
2023/07/14 02:15:33;;;;;;;;;;;14.50;92.30;;;;;;5000946;28;19963;-83
2023/07/14 02:17:59;;;;;;;;;;;14.40;92.40;;;;;;5003444;28;20469;-84
2023/07/14 02:20:30;;;;;;;;;;;14.40;92.60;;;;;;5021968;28;19925;-83
2023/07/14 02:22:56;;;;;;;;;;;14.40;92.60;;;;;;5001116;28;20376;-84
2023/07/14 02:25:23;;;;;;;;;;;14.30;92.70;;;;;;5021780;28;19921;-83
2023/07/14 02:27:49;;;;;;;;;;;14.30;92.80;;;;;;5020400;28;19913;-84
2023/07/14 02:30:20;;;;;;;;;;;14.20;93.10;;;;;;5019168;28;19948;-84
2023/07/14 02:32:51;;;;;;;;;;;14.10;93.30;;;;;;5019279;28;20051;-84
2023/07/14 02:35:36;;;;;;;;;;;14.10;93.60;;;;;;5019967;28;19917;-84
2023/07/14 02:38:12;;;;;;;;;;;14.10;93.90;;;;;;5008511;28;19917;-83
2023/07/14 02:40:41;;;;;;;;;;;13.90;94.40;;;;;;5003784;28;19940;-84
2023/07/14 02:43:08;;;;;;;;;;;13.90;94.50;;;;;;5003615;28;19917;-84
2023/07/14 02:45:35;;;;;;;;;;;13.80;94.60;;;;;;5021396;28;19925;-84
2023/07/14 02:48:03;;;;;;;;;;;13.80;94.90;;;;;;5022020;28;20296;-83
2023/07/14 02:50:29;;;;;;;;;;;13.80;94.70;;;;;;5003199;28;19925;-84
2023/07/14 02:52:54;;;;;;;;;;;13.80;95.00;;;;;;5022162;28;19971;-83
2023/07/14 02:55:20;;;;;;;;;;;13.80;94.80;;;;;;5020409;28;19909;-84
2023/07/14 02:57:45;;;;;;;;;;;13.80;94.90;;;;;;5003526;28;19970;-84
2023/07/14 03:00:11;;;;;;;;;;;13.80;94.90;;;;;;5021674;28;19963;-84
2023/07/14 03:02:38;;;;;;;;;;;13.80;94.70;;;;;;5021995;28;19967;-83
2023/07/14 03:05:04;;;;;;;;;;;13.70;94.80;;;;;;5003669;28;20307;-83
2023/07/14 03:07:32;;;;;;;;;;;13.80;94.90;;;;;;5002645;28;19917;-83
2023/07/14 03:09:58;;;;;;;;;;;13.70;95.20;;;;;;5019857;28;19917;-82
2023/07/14 03:12:23;;;;;;;;;;;13.80;95.10;;;;;;5003331;28;19967;-82
2023/07/14 03:14:49;;;;;;;;;;;13.70;95.20;;;;;;5023610;28;20713;-83
2023/07/14 03:17:14;;;;;;;;;;;13.70;95.30;;;;;;5007722;28;19917;-83
2023/07/14 03:19:40;;;;;;;;;;;13.70;95.30;;;;;;5007451;28;19921;-83
2023/07/14 03:22:06;;;;;;;;;;;13.60;95.50;;;;;;5006555;28;19913;-82
2023/07/14 03:24:31;;;;;;;;;;;13.60;95.50;;;;;;5025392;28;20408;-82
2023/07/14 03:26:57;;;;;;;;;;;13.50;95.50;;;;;;5007679;28;20440;-81
2023/07/14 03:29:22;;;;;;;;;;;13.60;95.70;;;;;;5022377;28;19923;-81
2023/07/14 03:31:48;;;;;;;;;;;13.60;95.60;;;;;;5024955;28;19917;-82
2023/07/14 03:34:13;;;;;;;;;;;13.50;95.80;;;;;;5024781;28;19956;-82
2023/07/14 03:36:39;;;;;;;;;;;13.50;95.90;;;;;;5024267;28;19913;-83
2023/07/14 03:39:25;;;;;;;;;;;13.50;96.20;;;;;;5020445;28;20525;-84
2023/07/14 03:41:51;;;;;;;;;;;13.40;96.20;;;;;;5006237;28;19987;-82
2023/07/14 03:44:17;;;;;;;;;;;13.40;96.20;;;;;;5023196;28;20416;-84
2023/07/14 03:46:42;;;;;;;;;;;13.40;96.30;;;;;;5024287;28;19931;-85
2023/07/14 03:49:08;;;;;;;;;;;13.40;96.30;;;;;;5024860;28;20015;-86
2023/07/14 03:51:33;;;;;;;;;;;13.40;96.40;;;;;;5006152;28;19925;-84
2023/07/14 03:53:59;;;;;;;;;;;13.30;96.40;;;;;;5006707;28;19939;-81
2023/07/14 03:56:25;;;;;;;;;;;13.40;96.50;;;;;;5007061;28;19940;-83
2023/07/14 03:58:51;;;;;;;;;;;13.30;96.60;;;;;;5023878;28;20614;-84
2023/07/14 04:01:16;;;;;;;;;;;13.20;96.80;;;;;;5006221;28;19924;-84
2023/07/14 04:03:42;;;;;;;;;;;13.10;97.60;;;;;;5006631;28;20697;-83
2023/07/14 04:06:07;;;;;;;;;;;13.00;97.60;;;;;;5025203;28;19932;-84
2023/07/14 04:08:36;;;;;;;;;;;13.10;97.50;;;;;;5023388;28;19917;-84
2023/07/14 04:11:02;;;;;;;;;;;13.10;97.60;;;;;;5023479;28;19917;-84
2023/07/14 04:13:27;;;;;;;;;;;13.20;97.50;;;;;;5006806;28;19924;-83
2023/07/14 04:15:53;;;;;;;;;;;13.10;97.40;;;;;;5025023;28;19918;-82
2023/07/14 04:18:18;;;;;;;;;;;13.10;97.20;;;;;;5023912;28;19925;-81
2023/07/14 04:20:44;;;;;;;;;;;12.90;98.00;;;;;;5006540;28;20003;-81
2023/07/14 04:23:09;;;;;;;;;;;13.00;98.10;;;;;;5025329;28;19923;-82
2023/07/14 04:25:35;;;;;;;;;;;13.10;97.90;;;;;;5006564;28;19932;-82
2023/07/14 04:28:02;;;;;;;;;;;13.00;98.10;;;;;;5022309;28;19927;-80
2023/07/14 04:30:27;;;;;;;;;;;13.00;98.10;;;;;;5006309;28;19917;-80
2023/07/14 04:32:56;;;;;;;;;;;13.10;97.70;;;;;;5021207;28;19924;-81
2023/07/14 04:35:22;;;;;;;;;;;13.10;97.50;;;;;;5024007;28;20782;-81
2023/07/14 04:37:48;;;;;;;;;;;13.30;97.00;;;;;;5006340;28;19917;-81
2023/07/14 04:40:14;;;;;;;;;;;13.40;96.70;;;;;;5023957;28;19913;-82
2023/07/14 04:42:39;;;;;;;;;;;13.60;96.00;;;;;;5023249;28;19913;-82
2023/07/14 04:45:05;;;;;;;;;;;13.90;95.10;;;;;;5022948;28;19951;-82
2023/07/14 04:47:31;;;;;;;;;;;13.90;94.70;;;;;;5003396;28;19935;-81
2023/07/14 04:49:57;;;;;;;;;;;14.40;93.60;;;;;;5005325;28;19925;-83
2023/07/14 04:52:22;;;;;;;;;;;14.70;93.00;;;;;;5005131;28;19917;-82
2023/07/14 04:54:48;;;;;;;;;;;14.80;92.40;;;;;;5005249;28;19917;-84
2023/07/14 04:57:14;;;;;;;;;;;15.20;91.60;;;;;;5002982;28;19991;-83
2023/07/14 04:59:40;;;;;;;;;;;15.60;90.70;;;;;;5022662;28;19917;-82
2023/07/14 05:02:07;;;;;;;;;;;15.90;90.10;;;;;;5025342;28;20384;-82
2023/07/14 05:04:33;;;;;;;;;;;16.10;89.00;;;;;;5013134;28;19913;-82
2023/07/14 05:06:58;;;;;;;;;;;16.50;87.70;;;;;;5024089;28;20462;-82
2023/07/14 05:09:24;;;;;;;;;;;17.20;83.20;;;;;;5009728;28;19917;-82
2023/07/14 05:11:49;;;;;;;;;;;17.80;81.10;;;;;;5005151;28;20010;-84
2023/07/14 05:14:15;;;;;;;;;;;18.50;78.20;;;;;;5005386;28;20342;-85
2023/07/14 05:16:41;;;;;;;;;;;18.20;77.70;;;;;;5022468;28;19917;-84
2023/07/14 05:19:06;;;;;;;;;;;18.90;75.30;;;;;;5004717;28;20379;-83
2023/07/14 05:21:32;;;;;;;;;;;18.30;76.00;;;;;;5004872;28;19924;-85
2023/07/14 05:23:57;;;;;;;;;;;18.80;75.60;;;;;;5004763;28;20435;-85
2023/07/14 05:26:23;;;;;;;;;;;19.10;73.90;;;;;;5023351;28;19925;-84
2023/07/14 05:28:48;;;;;;;;;;;19.90;71.80;;;;;;5007093;28;20470;-85
2023/07/14 05:31:14;;;;;;;;;;;20.10;71.70;;;;;;5000697;28;20376;-84
2023/07/14 05:33:40;;;;;;;;;;;20.40;69.90;;;;;;5006566;28;20371;-85
2023/07/14 05:36:06;;;;;;;;;;;20.70;67.40;;;;;;5023639;28;19921;-82
2023/07/14 05:38:31;;;;;;;;;;;21.20;67.20;;;;;;5004935;28;20580;-82
2023/07/14 05:40:57;;;;;;;;;;;21.30;66.20;;;;;;5021659;28;20622;-82
2023/07/14 05:43:23;;;;;;;;;;;21.10;66.40;;;;;;5004638;28;21131;-82
2023/07/14 05:45:49;;;;;;;;;;;21.40;64.90;;;;;;5001644;28;19933;-84
2023/07/14 05:48:16;;;;;;;;;;;21.20;64.90;;;;;;5005943;28;19921;-83
2023/07/14 05:50:43;;;;;;;;;;;21.20;64.70;;;;;;5021990;28;19925;-83
2023/07/14 05:53:09;;;;;;;;;;;21.90;62.90;;;;;;5019956;28;19924;-82
2023/07/14 05:55:35;;;;;;;;;;;21.70;62.20;;;;;;5008207;28;20122;-81
2023/07/14 05:58:00;;;;;;;;;;;22.70;60.70;;;;;;5021602;28;20373;-80
2023/07/14 06:00:26;;;;;;;;;;;22.10;60.90;;;;;;5000054;28;19971;-78
2023/07/14 06:02:54;;;;;;;;;;;21.00;63.80;;;;;;5015499;28;20067;-78
2023/07/14 06:05:19;;;;;;;;;;;21.10;65.10;;;;;;5022103;28;20392;-79
2023/07/14 06:07:45;;;;;;;;;;;21.50;64.80;;;;;;4999491;28;20052;-79
2023/07/14 06:10:11;;;;;;;;;;;21.80;61.00;;;;;;5000875;28;19925;-79
2023/07/14 06:12:37;;;;;;;;;;;21.80;62.00;;;;;;5015506;28;19920;-79
2023/07/14 06:15:03;;;;;;;;;;;20.80;65.10;;;;;;5020799;28;20296;-79
2023/07/14 06:17:29;;;;;;;;;;;21.70;62.90;;;;;;5024993;28;20011;-84
2023/07/14 06:19:55;;;;;;;;;;;21.00;65.20;;;;;;5002132;28;19917;-83
2023/07/14 06:22:21;;;;;;;;;;;24.00;56.60;;;;;;5014659;28;19922;-84
2023/07/14 06:24:48;;;;;;;;;;;24.70;55.70;;;;;;5013461;28;20027;-82
2023/07/14 06:27:14;;;;;;;;;;;23.90;56.20;;;;;;5017635;28;19952;-82
2023/07/14 06:29:40;;;;;;;;;;;24.30;55.00;;;;;;5024672;28;20027;-82
2023/07/14 06:32:05;;;;;;;;;;;24.50;54.60;;;;;;5013590;28;19928;-82
2023/07/14 06:34:31;;;;;;;;;;;23.60;55.80;;;;;;5032382;28;19943;-81
2023/07/14 06:36:57;;;;;;;;;;;25.30;53.20;;;;;;5032072;28;19917;-81
2023/07/14 06:39:22;;;;;;;;;;;25.30;52.10;;;;;;5023950;28;19914;-81
2023/07/14 06:41:48;;;;;;;;;;;26.10;52.40;;;;;;5031692;28;19921;-81
2023/07/14 06:44:15;;;;;;;;;;;25.70;51.90;;;;;;5021891;28;20328;-82
2023/07/14 06:46:40;;;;;;;;;;;25.50;52.10;;;;;;5022424;28;19929;-82
2023/07/14 06:49:06;;;;;;;;;;;26.40;50.80;;;;;;5021696;28;20426;-82
2023/07/14 06:51:32;;;;;;;;;;;26.20;51.30;;;;;;5017699;28;20469;-82
2023/07/14 06:53:57;;;;;;;;;;;27.20;49.70;;;;;;5042856;28;19952;-82
2023/07/14 06:56:23;;;;;;;;;;;28.20;48.20;;;;;;5026895;28;20384;-82
2023/07/14 06:58:48;;;;;;;;;;;28.20;47.40;;;;;;5032161;28;19917;-83
2023/07/14 07:01:15;;;;;;;;;;;27.40;47.40;;;;;;5025120;28;20046;-82
2023/07/14 07:03:41;;;;;;;;;;;27.70;48.70;;;;;;5015159;28;20581;-82
2023/07/14 07:06:06;;;;;;;;;;;29.30;47.00;;;;;;5023324;28;19917;-82
2023/07/14 07:08:32;;;;;;;;;;;30.20;44.60;;;;;;5038257;28;19920;-81
2023/07/14 07:10:58;;;;;;;;;;;31.00;42.80;;;;;;5010174;28;19921;-82
2023/07/14 07:13:23;;;;;;;;;;;29.10;45.20;;;;;;5018331;28;19916;-82
2023/07/14 07:15:49;;;;;;;;;;;29.20;45.80;;;;;;5009865;28;19917;-82
2023/07/14 07:18:18;;;;;;;;;;;29.30;46.00;;;;;;5040303;28;19939;-82
2023/07/14 07:20:43;;;;;;;;;;;29.30;45.90;;;;;;5014138;28;19913;-82
2023/07/14 07:23:09;;;;;;;;;;;28.90;46.10;;;;;;5018400;28;19913;-82
2023/07/14 07:25:35;;;;;;;;;;;28.40;47.20;;;;;;5028584;28;19921;-82
2023/07/14 07:28:01;;;;;;;;;;;29.10;46.70;;;;;;5016936;28;19920;-82
2023/07/14 07:30:26;;;;;;;;;;;27.60;46.80;;;;;;5035462;28;19958;-82
2023/07/14 07:32:52;;;;;;;;;;;27.10;49.30;;;;;;5007283;28;19924;-82
2023/07/14 07:35:18;;;;;;;;;;;28.70;47.80;;;;;;5028547;28;19919;-82
2023/07/14 07:37:44;;;;;;;;;;;29.10;45.50;;;;;;5018793;28;19913;-82
2023/07/14 07:40:11;;;;;;;;;;;28.40;47.50;;;;;;5032070;28;19920;-82
2023/07/14 07:42:40;;;;;;;;;;;29.70;46.60;;;;;;5029540;28;20310;-81
2023/07/14 07:45:06;;;;;;;;;;;31.00;45.60;;;;;;5013533;28;20727;-82
2023/07/14 07:47:32;;;;;;;;;;;30.60;43.10;;;;;;5011219;28;19940;-82
2023/07/14 07:49:57;;;;;;;;;;;31.70;43.30;;;;;;5012569;28;20407;-82
2023/07/14 07:52:23;;;;;;;;;;;31.00;42.10;;;;;;5029141;28;19917;-82
2023/07/14 07:54:49;;;;;;;;;;;32.00;41.90;;;;;;5028846;28;19913;-82
2023/07/14 07:57:14;;;;;;;;;;;32.60;41.10;;;;;;5009557;28;20384;-82
2023/07/14 07:59:40;;;;;;;;;;;32.00;42.50;;;;;;5028397;28;19972;-82
2023/07/14 08:02:09;;;;;;;;;;;33.60;41.70;;;;;;5005103;28;19920;-82
2023/07/14 08:04:34;;;;;;;;;;;33.80;39.90;;;;;;5022552;28;19921;-83
2023/07/14 08:07:00;;;;;;;;;;;33.70;40.50;;;;;;5026337;28;19925;-84
2023/07/14 08:09:25;;;;;;;;;;;33.90;39.30;;;;;;5012787;28;19927;-84
2023/07/14 08:11:55;;;;;;;;;;;34.80;40.70;;;;;;5036921;28;19947;-84
2023/07/14 08:14:21;;;;;;;;;;;34.10;39.90;;;;;;5009716;28;19913;-82
2023/07/14 08:16:46;;;;;;;;;;;34.10;41.00;;;;;;5012026;28;19917;-83
2023/07/14 08:19:15;;;;;;;;;;;35.10;40.40;;;;;;5006552;28;19917;-82
2023/07/14 08:21:41;;;;;;;;;;;35.50;38.80;;;;;;5006025;28;19913;-82
2023/07/14 08:24:07;;;;;;;;;;;35.70;39.00;;;;;;5024072;28;20007;-83
2023/07/14 08:26:33;;;;;;;;;;;35.70;38.10;;;;;;5004429;28;19947;-81
2023/07/14 08:28:59;;;;;;;;;;;36.60;37.30;;;;;;5006789;28;20296;-81
2023/07/14 08:31:24;;;;;;;;;;;35.30;38.70;;;;;;5015348;28;19924;-81
2023/07/14 08:33:51;;;;;;;;;;;35.10;40.30;;;;;;5039078;28;19913;-81
2023/07/14 08:36:17;;;;;;;;;;;35.00;40.10;;;;;;5024410;28;19914;-81
2023/07/14 08:38:42;;;;;;;;;;;35.10;40.00;;;;;;5005989;28;19942;-81
2023/07/14 08:41:17;;;;;;;;;;;35.90;39.20;;;;;;5023272;28;19963;-81
2023/07/14 08:44:01;;;;;;;;;;;36.30;36.60;;;;;;5021546;28;19913;-83
2023/07/14 08:46:33;;;;;;;;;;;36.90;37.00;;;;;;5019182;28;19967;-83
2023/07/14 08:49:04;;;;;;;;;;;37.30;36.70;;;;;;5023639;28;20405;-85
2023/07/14 08:51:39;;;;;;;;;;;38.30;36.60;;;;;;5005214;28;19929;-84
2023/07/14 08:54:10;;;;;;;;;;;37.40;34.60;;;;;;5023770;28;20045;-82
2023/07/14 08:56:36;;;;;;;;;;;36.50;36.50;;;;;;5004209;28;19921;-87
2023/07/14 08:59:01;;;;;;;;;;;36.30;36.70;;;;;;5022654;28;19917;-85
2023/07/14 09:01:34;;;;;;;;;;;36.50;36.50;;;;;;5019152;28;19924;-86
2023/07/14 09:04:03;;;;;;;;;;;38.10;36.80;;;;;;5021004;28;19917;-84
2023/07/14 09:06:33;;;;;;;;;;;37.50;36.50;;;;;;5024729;28;19960;-86
2023/07/14 09:08:59;;;;;;;;;;;37.80;34.40;;;;;;5023979;28;19917;-84
2023/07/14 09:11:43;;;;;;;;;;;36.90;36.80;;;;;;5017778;28;19948;-83
2023/07/14 09:14:14;;;;;;;;;;;36.30;36.60;;;;;;5021754;28;19917;-84
2023/07/14 09:16:48;;;;;;;;;;;36.60;36.30;;;;;;5021003;28;19913;-85
2023/07/14 09:19:14;;;;;;;;;;;37.40;36.40;;;;;;5020674;28;19917;-85
2023/07/14 09:21:45;;;;;;;;;;;39.20;34.20;;;;;;5021169;28;19917;-85
2023/07/14 09:24:14;;;;;;;;;;;38.90;34.10;;;;;;5019330;28;20439;-85
2023/07/14 09:26:44;;;;;;;;;;;40.20;32.30;;;;;;5016418;28;19925;-83
2023/07/14 09:29:18;;;;;;;;;;;40.50;32.70;;;;;;5023935;28;19916;-81
2023/07/14 09:31:44;;;;;;;;;;;38.90;31.80;;;;;;5006020;28;19917;-84
2023/07/14 09:34:23;;;;;;;;;;;38.00;32.40;;;;;;5025232;28;19924;-82
2023/07/14 09:36:49;;;;;;;;;;;37.00;33.80;;;;;;5016540;28;19917;-82
2023/07/14 09:39:20;;;;;;;;;;;37.60;33.50;;;;;;5013696;28;19916;-82
2023/07/14 09:41:46;;;;;;;;;;;39.80;31.90;;;;;;5020256;28;19917;-81
2023/07/14 09:44:12;;;;;;;;;;;39.40;31.70;;;;;;5022217;28;20626;-83
2023/07/14 09:46:41;;;;;;;;;;;39.60;30.40;;;;;;5022372;28;20012;-84
2023/07/14 09:49:12;;;;;;;;;;;39.70;31.80;;;;;;5027978;28;20211;-84
2023/07/14 09:51:38;;;;;;;;;;;40.60;30.70;;;;;;5025270;28;19928;-82
2023/07/14 09:54:10;;;;;;;;;;;41.10;29.60;;;;;;5022432;28;20759;-84
2023/07/14 09:56:42;;;;;;;;;;;40.30;30.40;;;;;;5021727;28;19917;-80
2023/07/14 09:59:18;;;;;;;;;;;39.40;31.00;;;;;;5006828;28;20410;-81
2023/07/14 10:02:13;;;;;;;;;;;39.50;32.40;;;;;;5020402;28;19917;-82
2023/07/14 10:04:38;;;;;;;;;;;38.90;30.90;;;;;;4982481;28;19960;-79
2023/07/14 10:07:22;;;;;;;;;;;39.90;31.70;;;;;;5025605;28;20020;-79
2023/07/14 10:09:58;;;;;;;;;;;40.80;29.00;;;;;;5008521;28;19924;-76
2023/07/14 10:12:24;;;;;;;;;;;41.50;30.60;;;;;;5019994;28;19939;-86
2023/07/14 10:14:50;;;;;;;;;;;39.70;28.20;;;;;;5004056;28;20296;-84
2023/07/14 10:17:25;;;;;;;;;;;40.80;31.90;;;;;;5022120;28;20019;-86
2023/07/14 10:19:51;;;;;;;;;;;40.70;29.40;;;;;;5022409;28;20012;-83
2023/07/14 10:22:18;;;;;;;;;;;38.50;29.10;;;;;;5021701;28;19917;-84
2023/07/14 10:24:56;;;;;;;;;;;37.40;29.60;;;;;;5025335;28;19917;-85
2023/07/14 10:27:26;;;;;;;;;;;37.50;30.10;;;;;;5023648;28;19921;-85
2023/07/14 10:29:57;;;;;;;;;;;40.10;29.10;;;;;;5028174;28;19921;-85
2023/07/14 10:32:30;;;;;;;;;;;41.30;29.20;;;;;;5021141;28;20552;-88
2023/07/14 10:35:02;;;;;;;;;;;40.10;28.60;;;;;;5008494;28;19917;-85
2023/07/14 10:37:31;;;;;;;;;;;40.40;27.60;;;;;;5019116;28;20391;-86
2023/07/14 10:39:59;;;;;;;;;;;40.20;28.20;;;;;;5025389;28;19917;-88
2023/07/14 10:42:26;;;;;;;;;;;40.70;29.80;;;;;;5030418;28;19913;-87
2023/07/14 10:44:53;;;;;;;;;;;39.40;28.30;;;;;;5021755;28;19921;-86
2023/07/14 10:47:21;;;;;;;;;;;39.70;29.30;;;;;;5010895;28;19936;-85
2023/07/14 10:49:57;;;;;;;;;;;37.20;27.80;;;;;;5003452;28;19925;-88
2023/07/14 10:52:26;;;;;;;;;;;33.70;31.90;;;;;;5035205;28;19916;-86
2023/07/14 10:55:01;;;;;;;;;;;33.90;34.20;;;;;;5023796;28;19917;-86
2023/07/14 10:57:29;;;;;;;;;;;33.40;33.30;;;;;;5006630;28;19917;-86
2023/07/14 10:59:59;;;;;;;;;;;33.10;36.70;;;;;;5020097;28;19924;-87
2023/07/14 11:02:37;;;;;;;;;;;32.90;32.90;;;;;;5022443;28;19913;-86
2023/07/14 11:05:05;;;;;;;;;;;32.30;34.60;;;;;;5018980;28;19930;-85
2023/07/14 11:07:32;;;;;;;;;;;32.20;36.70;;;;;;5003652;28;19921;-87
2023/07/14 11:09:58;;;;;;;;;;;32.10;35.40;;;;;;5019577;28;20323;-87
2023/07/14 11:12:53;;;;;;;;;;;32.00;36.70;;;;;;5009563;28;19958;-86
2023/07/14 11:15:22;;;;;;;;;;;32.00;35.40;;;;;;5014547;28;19922;-86
2023/07/14 11:18:06;;;;;;;;;;;31.90;40.20;;;;;;5021045;28;19925;-89
2023/07/14 11:20:36;;;;;;;;;;;31.60;39.00;;;;;;5025852;28;20067;-87
2023/07/14 11:23:28;;;;;;;;;;;31.60;37.40;;;;;;5004850;28;19916;-87
2023/07/14 11:26:32;;;;;;;;;;;31.50;37.40;;;;;;4989264;28;19928;-86
2023/07/14 11:29:04;;;;;;;;;;;30.50;39.50;;;;;;4939765;29;19922;-87
2023/07/14 11:31:50;;;;;;;;;;;30.10;39.00;;;;;;4940613;29;19966;-87
2023/07/14 11:34:19;;;;;;;;;;;30.40;40.90;;;;;;4990317;28;19917;-90
2023/07/14 11:36:54;;;;;;;;;;;30.30;42.10;;;;;;5029692;28;19963;-90
2023/07/14 11:39:23;;;;;;;;;;;30.30;43.50;;;;;;5023885;28;20002;-88
2023/07/14 11:41:49;;;;;;;;;;;29.60;41.10;;;;;;5025900;28;20304;-88
2023/07/14 11:44:18;;;;;;;;;;;29.60;40.90;;;;;;5010027;28;19924;-89
2023/07/14 11:46:44;;;;;;;;;;;29.60;41.90;;;;;;5030543;28;20036;-90
2023/07/14 11:49:31;;;;;;;;;;;30.00;45.30;;;;;;5028304;28;20110;-89
2023/07/14 11:52:08;;;;;;;;;;;29.50;42.70;;;;;;5024142;28;19925;-90
2023/07/14 11:54:43;;;;;;;;;;;29.50;42.30;;;;;;5025345;28;19996;-88
2023/07/14 11:57:16;;;;;;;;;;;29.50;41.20;;;;;;5026049;28;20057;-89
2023/07/14 12:00:00;;;;;;;;;;;29.40;42.10;;;;;;5015131;28;19917;-86
2023/07/14 12:02:35;;;;;;;;;;;29.50;45.30;;;;;;5023604;28;19917;-90
2023/07/14 12:05:17;;;;;;;;;;;29.60;44.70;;;;;;5026454;28;19932;-88
2023/07/14 12:08:01;;;;;;;;;;;29.40;45.20;;;;;;5021775;28;19928;-89
2023/07/14 12:10:42;;;;;;;;;;;29.40;43.50;;;;;;5018285;28;19928;-88
2023/07/14 12:13:17;;;;;;;;;;;29.40;43.00;;;;;;5026815;28;19987;-87
2023/07/14 12:15:47;;;;;;;;;;;29.40;44.80;;;;;;5021269;28;19917;-89
2023/07/14 12:18:31;;;;;;;;;;;29.40;44.60;;;;;;5022484;28;19923;-88
2023/07/14 12:21:15;;;;;;;;;;;29.40;45.50;;;;;;5041489;28;20493;-88
2023/07/14 12:24:07;;;;;;;;;;;29.40;48.30;;;;;;5008978;28;19921;-87
2023/07/14 12:26:39;;;;;;;;;;;29.30;45.60;;;;;;5032571;28;19925;-89
2023/07/14 12:29:14;;;;;;;;;;;29.40;45.70;;;;;;5027241;28;19916;-87
2023/07/14 12:31:40;;;;;;;;;;;29.30;46.00;;;;;;5006028;28;20003;-89
2023/07/14 12:34:13;;;;;;;;;;;29.10;44.80;;;;;;4999146;28;19921;-89
2023/07/14 12:36:40;;;;;;;;;;;29.00;45.10;;;;;;5022764;28;19917;-86
2023/07/14 12:39:08;;;;;;;;;;;29.10;47.40;;;;;;5029192;28;19924;-87
2023/07/14 12:41:35;;;;;;;;;;;29.30;47.40;;;;;;5026238;28;19913;-89
2023/07/14 12:44:00;;;;;;;;;;;29.20;46.60;;;;;;5010413;28;19912;-89
2023/07/14 12:46:27;;;;;;;;;;;29.20;49.20;;;;;;5025626;28;19940;-88
2023/07/14 12:49:05;;;;;;;;;;;29.10;45.10;;;;;;5024723;28;19924;-87
2023/07/14 12:51:36;;;;;;;;;;;29.30;47.20;;;;;;5022741;28;19965;-89
2023/07/14 12:54:03;;;;;;;;;;;29.20;46.80;;;;;;5021703;28;20646;-86
2023/07/14 12:56:32;;;;;;;;;;;29.20;46.00;;;;;;5004001;28;19963;-86
2023/07/14 12:58:58;;;;;;;;;;;29.10;46.30;;;;;;5004363;28;19921;-86
2023/07/14 13:01:23;;;;;;;;;;;29.10;46.30;;;;;;5018437;28;20989;-87
2023/07/14 13:03:49;;;;;;;;;;;29.00;45.90;;;;;;5020377;28;19924;-85
2023/07/14 13:06:16;;;;;;;;;;;29.10;46.20;;;;;;5023141;28;19925;-85
2023/07/14 13:08:45;;;;;;;;;;;29.10;48.10;;;;;;5012618;28;20347;-85
2023/07/14 13:11:18;;;;;;;;;;;29.20;47.50;;;;;;5004554;28;19923;-84
2023/07/14 13:13:44;;;;;;;;;;;29.20;46.10;;;;;;5027498;28;20007;-86
2023/07/14 13:16:10;;;;;;;;;;;29.20;46.70;;;;;;5003113;28;19921;-87
2023/07/14 13:18:36;;;;;;;;;;;29.30;45.20;;;;;;5009403;28;19995;-86
2023/07/14 13:21:22;;;;;;;;;;;29.20;44.60;;;;;;5005878;28;19917;-86
2023/07/14 13:23:53;;;;;;;;;;;29.10;43.80;;;;;;5022106;28;19917;-86
2023/07/14 13:26:19;;;;;;;;;;;29.20;44.80;;;;;;5021567;28;19968;-85
2023/07/14 13:28:56;;;;;;;;;;;29.10;46.00;;;;;;5029203;28;19917;-86
2023/07/14 13:31:25;;;;;;;;;;;29.00;44.80;;;;;;5004330;28;20068;-86
2023/07/14 13:33:50;;;;;;;;;;;29.10;48.30;;;;;;5024796;28;19917;-87
2023/07/14 13:36:45;;;;;;;;;;;29.20;45.50;;;;;;5022807;28;19921;-86
2023/07/14 13:39:18;;;;;;;;;;;29.10;44.50;;;;;;4996848;28;19924;-90
2023/07/14 13:41:45;;;;;;;;;;;29.20;47.60;;;;;;5004512;28;19917;-88
2023/07/14 13:44:29;;;;;;;;;;;29.20;44.40;;;;;;5024000;28;19919;-90
2023/07/14 13:46:55;;;;;;;;;;;29.10;44.90;;;;;;5012576;28;19935;-90
2023/07/14 13:49:21;;;;;;;;;;;29.10;45.30;;;;;;5034622;28;19912;-89
2023/07/14 13:51:46;;;;;;;;;;;29.20;43.50;;;;;;5041371;28;20006;-88
2023/07/14 13:54:16;;;;;;;;;;;29.10;45.00;;;;;;5022248;28;19924;-88
2023/07/14 13:56:41;;;;;;;;;;;29.20;43.90;;;;;;5039224;28;19912;-88
2023/07/14 13:59:13;;;;;;;;;;;29.10;45.80;;;;;;5024788;28;19924;-89
2023/07/14 14:01:38;;;;;;;;;;;29.10;43.60;;;;;;5021962;28;19924;-87
2023/07/14 14:04:04;;;;;;;;;;;29.20;42.60;;;;;;5004794;28;20570;-88
2023/07/14 14:06:29;;;;;;;;;;;29.10;43.80;;;;;;5008243;28;19929;-89
2023/07/14 14:08:55;;;;;;;;;;;29.10;45.40;;;;;;5005882;28;19921;-88
2023/07/14 14:11:20;;;;;;;;;;;29.10;43.10;;;;;;5025395;28;19916;-89
2023/07/14 14:13:46;;;;;;;;;;;29.10;46.30;;;;;;5025864;28;19921;-89
2023/07/14 14:16:16;;;;;;;;;;;29.00;43.80;;;;;;5011358;28;19920;-88
2023/07/14 14:18:42;;;;;;;;;;;29.00;43.50;;;;;;5020826;28;19963;-88
2023/07/14 14:21:08;;;;;;;;;;;29.00;44.50;;;;;;5021643;28;20663;-89
2023/07/14 14:23:34;;;;;;;;;;;29.00;44.00;;;;;;5005038;28;19920;-88
2023/07/14 14:25:59;;;;;;;;;;;28.80;47.90;;;;;;5004622;28;19928;-88